createdAt,value
2022-09-23T00:01:27.702Z,102120.20
2022-09-23T00:03:56.534Z,102121.88
2022-09-23T00:06:24.707Z,102121.44
2022-09-23T00:08:53.034Z,102115.95
2022-09-23T00:11:26.606Z,102105.14
2022-09-23T00:13:56.238Z,102116.14
2022-09-23T00:16:34.359Z,102120.02
2022-09-23T00:19:04.422Z,102107.60
2022-09-23T00:21:32.866Z,102122.96
2022-09-23T00:24:02.424Z,102118.70
2022-09-23T00:26:30.550Z,102112.14
2022-09-23T00:28:58.659Z,102108.98
2022-09-23T00:31:28.061Z,102103.80
2022-09-23T00:34:01.396Z,102106.73
2022-09-23T00:36:30.577Z,102103.75
2022-09-23T00:39:00.207Z,102100.52
2022-09-23T00:41:29.015Z,102100.86
2022-09-23T00:44:01.310Z,102102.13
2022-09-23T00:46:40.315Z,102099.61
2022-09-23T00:49:15.770Z,102105.25
2022-09-23T00:51:50.196Z,102102.11
2022-09-23T00:54:20.062Z,102100.46
2022-09-23T00:56:49.871Z,102101.85
2022-09-23T00:59:18.118Z,102091.44
2022-09-23T01:01:48.690Z,102099.79
2022-09-23T01:04:16.930Z,102099.05
2022-09-23T01:07:03.693Z,102095.80
2022-09-23T01:09:37.652Z,102095.14
2022-09-23T01:12:33.929Z,102081.11
2022-09-23T01:15:19.207Z,102090.17
2022-09-23T01:17:57.662Z,102087.65
2022-09-23T01:20:56.022Z,102088.80
2022-09-23T01:23:43.027Z,102086.02
2022-09-23T01:26:52.236Z,102083.58
2022-09-23T01:29:46.598Z,102089.70
2022-09-23T01:32:37.564Z,102087.23
2022-09-23T01:35:37.730Z,102091.90
2022-09-23T01:38:47.069Z,102089.11
2022-09-23T01:41:42.794Z,102087.95
2022-09-23T01:44:18.954Z,102085.09
2022-09-23T01:46:53.395Z,102079.48
2022-09-23T01:49:31.779Z,102080.86
2022-09-23T01:52:07.139Z,102077.79
2022-09-23T01:54:40.244Z,102080.95
2022-09-23T01:57:16.401Z,102077.27
2022-09-23T01:59:56.161Z,102077.70
2022-09-23T02:02:31.508Z,102077.27
2022-09-23T02:05:11.957Z,102079.29
2022-09-23T02:07:49.018Z,102078.19
2022-09-23T02:10:24.152Z,102075.38
2022-09-23T02:12:57.859Z,102072.17
2022-09-23T02:15:32.037Z,102078.64
2022-09-23T02:18:05.462Z,102076.55
2022-09-23T02:20:36.802Z,102079.46
2022-09-23T02:23:12.505Z,102081.23
2022-09-23T02:25:54.244Z,102066.71
2022-09-23T02:28:31.293Z,102052.23
2022-09-23T02:31:16.508Z,102077.93
2022-09-23T02:34:02.245Z,102079.77
2022-09-23T02:36:39.947Z,102077.95
2022-09-23T02:39:12.535Z,102076.92
2022-09-23T02:42:12.829Z,102075.80
2022-09-23T02:44:41.001Z,102075.65
2022-09-23T02:47:10.647Z,102081.46
2022-09-23T02:49:38.744Z,102083.00
2022-09-23T02:52:07.726Z,102080.17
2022-09-23T02:54:37.491Z,102079.50
2022-09-23T02:57:08.391Z,102083.33
2022-09-23T02:59:37.403Z,102076.45
2022-09-23T03:02:23.366Z,102077.27
2022-09-23T03:05:03.983Z,102075.84
2022-09-23T03:07:59.600Z,102071.38
2022-09-23T03:10:35.339Z,102073.29
2022-09-23T03:13:26.082Z,102061.35
2022-09-23T03:16:12.681Z,102069.92
2022-09-23T03:18:51.287Z,102065.98
2022-09-23T03:21:57.075Z,102062.08
2022-09-23T03:24:25.790Z,102062.04
2022-09-23T03:26:55.524Z,102060.39
2022-09-23T03:29:24.076Z,102059.79
2022-09-23T03:31:53.462Z,102056.45
2022-09-23T03:34:28.431Z,102053.65
2022-09-23T03:37:32.032Z,102048.98
2022-09-23T03:40:24.212Z,102045.98
2022-09-23T03:42:54.109Z,102042.72
2022-09-23T03:45:27.721Z,102042.52
2022-09-23T03:47:55.635Z,102041.20
2022-09-23T03:50:24.256Z,102030.51
2022-09-23T03:52:52.290Z,102039.08
2022-09-23T03:55:21.413Z,102036.19
2022-09-23T03:57:49.541Z,102034.54
2022-09-23T04:00:17.835Z,102031.02
2022-09-23T04:02:46.055Z,102017.23
2022-09-23T04:05:14.470Z,102019.14
2022-09-23T04:07:42.714Z,102029.44
2022-09-23T04:10:11.202Z,102030.44
2022-09-23T04:12:39.358Z,102033.52
2022-09-23T04:15:07.701Z,102034.17
2022-09-23T04:17:35.774Z,102029.74
2022-09-23T04:20:04.381Z,102035.34
2022-09-23T04:22:38.711Z,102031.92
2022-09-23T04:25:07.733Z,102017.98
2022-09-23T04:27:37.893Z,102026.27
2022-09-23T04:30:07.167Z,102026.77
2022-09-23T04:32:36.633Z,102024.41
2022-09-23T04:35:06.187Z,102022.63
2022-09-23T04:37:34.262Z,102024.78
2022-09-23T04:40:03.497Z,102025.76
2022-09-23T04:42:31.565Z,102013.51
2022-09-23T04:44:59.669Z,102024.41
2022-09-23T04:47:28.463Z,102023.73
2022-09-23T04:49:59.704Z,102023.41
2022-09-23T04:52:30.125Z,102026.16
2022-09-23T04:54:58.215Z,102025.61
2022-09-23T04:57:26.516Z,102023.31
2022-09-23T04:59:56.216Z,102024.34
2022-09-23T05:02:24.952Z,102029.34
2022-09-23T05:04:53.235Z,102030.20
2022-09-23T05:07:21.391Z,102026.50
2022-09-23T05:09:49.599Z,102020.02
2022-09-23T05:12:17.659Z,102022.19
2022-09-23T05:14:45.723Z,102018.89
2022-09-23T05:17:14.843Z,102016.34
2022-09-23T05:19:42.942Z,102021.67
2022-09-23T05:22:11.003Z,102024.90
2022-09-23T05:24:39.086Z,102025.39
2022-09-23T05:27:07.631Z,102022.05
2022-09-23T05:29:35.823Z,102025.30
2022-09-23T05:32:03.953Z,102024.77
2022-09-23T05:34:32.449Z,102011.30
2022-09-23T05:37:00.642Z,102024.45
2022-09-23T05:39:29.526Z,102025.51
2022-09-23T05:41:59.154Z,102021.78
2022-09-23T05:44:28.122Z,102021.95
2022-09-23T05:46:57.117Z,102021.39
2022-09-23T05:49:42.585Z,102023.98
2022-09-23T05:52:13.936Z,102020.35
2022-09-23T05:54:42.282Z,102028.55
2022-09-23T05:57:10.925Z,102028.23
2022-09-23T05:59:39.190Z,102030.69
2022-09-23T06:02:09.497Z,102031.82
2022-09-23T06:04:37.713Z,102031.75
2022-09-23T06:07:06.214Z,102028.98
2022-09-23T06:09:36.667Z,102026.36
2022-09-23T06:12:06.593Z,102029.98
2022-09-23T06:14:34.751Z,102025.06
2022-09-23T06:17:03.145Z,102008.73
2022-09-23T06:19:31.353Z,102021.60
2022-09-23T06:21:59.567Z,102021.43
2022-09-23T06:24:31.234Z,102019.42
2022-09-23T06:27:01.127Z,102008.06
2022-09-23T06:29:30.988Z,102021.42
2022-09-23T06:31:59.880Z,102020.99
2022-09-23T06:34:28.196Z,102024.73
2022-09-23T06:36:56.431Z,102027.77
2022-09-23T06:39:24.761Z,102027.60
2022-09-23T06:41:52.988Z,102024.08
2022-09-23T06:44:21.244Z,102012.52
2022-09-23T06:46:51.717Z,102022.55
2022-09-23T06:49:22.976Z,102015.45
2022-09-23T06:51:51.429Z,102000.88
2022-09-23T06:54:20.664Z,102009.18
2022-09-23T06:56:49.142Z,102015.95
2022-09-23T06:59:18.921Z,102015.20
2022-09-23T07:01:48.493Z,102010.73
2022-09-23T07:04:17.162Z,102009.16
2022-09-23T07:06:45.575Z,102008.22
2022-09-23T07:09:13.909Z,102002.70
2022-09-23T07:11:42.379Z,102001.14
2022-09-23T07:14:11.067Z,102003.00
2022-09-23T07:16:39.695Z,102002.79
2022-09-23T07:19:08.232Z,102008.02
2022-09-23T07:21:37.851Z,102010.78
2022-09-23T07:24:07.468Z,102007.84
2022-09-23T07:26:35.890Z,102003.36
2022-09-23T07:29:07.116Z,102005.53
2022-09-23T07:31:39.523Z,102007.20
2022-09-23T07:34:11.861Z,102002.89
2022-09-23T07:36:41.350Z,102005.73
2022-09-23T07:39:12.259Z,101992.21
2022-09-23T07:41:44.679Z,102004.01
2022-09-23T07:44:13.516Z,102004.83
2022-09-23T07:46:41.866Z,102002.61
2022-09-23T07:49:10.770Z,101997.60
2022-09-23T07:51:41.122Z,101994.70
2022-09-23T07:54:14.767Z,101996.13
2022-09-23T07:56:43.922Z,101997.92
2022-09-23T07:59:18.421Z,101995.34
2022-09-23T08:01:49.698Z,101995.23
2022-09-23T08:04:22.906Z,101983.08
2022-09-23T08:06:56.829Z,101993.80
2022-09-23T08:09:28.621Z,101996.46
2022-09-23T08:11:56.725Z,101994.35
2022-09-23T08:14:25.132Z,101998.16
2022-09-23T08:16:54.239Z,101997.08
2022-09-23T08:19:22.423Z,101988.73
2022-09-23T08:21:52.328Z,101986.46
2022-09-23T08:24:24.272Z,101980.61
2022-09-23T08:26:54.401Z,101964.73
2022-09-23T08:29:24.689Z,101975.13
2022-09-23T08:31:53.407Z,101969.48
2022-09-23T08:34:22.845Z,101967.69
2022-09-23T08:36:52.508Z,101968.59
2022-09-23T08:39:20.925Z,101971.98
2022-09-23T08:42:13.694Z,101972.23
2022-09-23T08:44:55.302Z,101969.39
2022-09-23T08:47:44.894Z,101972.69
2022-09-23T08:50:18.107Z,101972.00
2022-09-23T08:52:55.181Z,101977.49
2022-09-23T08:55:48.078Z,101974.61
2022-09-23T08:58:45.451Z,101971.60
2022-09-23T09:01:31.661Z,101973.17
2022-09-23T09:04:14.659Z,101968.07
2022-09-23T09:07:12.294Z,101954.13
2022-09-23T09:09:53.586Z,101962.75
2022-09-23T09:12:29.471Z,101963.89
2022-09-23T09:15:20.647Z,101959.18
2022-09-23T09:18:20.086Z,101953.71
2022-09-23T09:21:08.663Z,101950.42
2022-09-23T09:23:56.646Z,101949.78
2022-09-23T09:26:27.997Z,101945.95
2022-09-23T09:29:31.204Z,101946.64
2022-09-23T09:32:16.885Z,101926.13
2022-09-23T09:34:54.788Z,101937.45
2022-09-23T09:37:44.749Z,101934.10
2022-09-23T09:40:15.282Z,101930.76
2022-09-23T09:42:48.626Z,101930.23
2022-09-23T09:45:57.712Z,101931.08
2022-09-23T09:49:00.818Z,101932.77
2022-09-23T09:51:29.975Z,101932.00
2022-09-23T09:54:23.394Z,101930.86
2022-09-23T09:56:52.746Z,101933.00
2022-09-23T09:59:27.567Z,101925.86
2022-09-23T10:02:14.255Z,101911.34
2022-09-23T10:04:42.901Z,101914.10
2022-09-23T10:07:15.980Z,101912.41
2022-09-23T10:09:55.777Z,101918.20
2022-09-23T10:12:27.012Z,101919.60
2022-09-23T10:14:58.219Z,101916.91
2022-09-23T10:17:32.307Z,101911.64
2022-09-23T10:20:03.125Z,101914.60
2022-09-23T10:22:39.186Z,101915.95
2022-09-23T10:25:10.609Z,101914.89
2022-09-23T10:27:39.035Z,101914.08
2022-09-23T10:30:24.228Z,101913.77
2022-09-23T10:32:55.117Z,101914.64
2022-09-23T10:35:25.243Z,101915.75
2022-09-23T10:37:59.896Z,101918.78
2022-09-23T10:41:01.852Z,101918.01
2022-09-23T10:43:57.995Z,101910.18
2022-09-23T10:46:41.447Z,101898.39
2022-09-23T10:49:28.506Z,101910.55
2022-09-23T10:52:16.214Z,101906.88
2022-09-23T10:55:21.433Z,101904.70
2022-09-23T10:58:00.061Z,101906.96
2022-09-23T11:00:37.961Z,101907.41
2022-09-23T11:03:18.722Z,101910.20
2022-09-23T11:05:49.783Z,101906.45
2022-09-23T11:08:59.404Z,101905.64
2022-09-23T11:12:08.962Z,101903.95
2022-09-23T11:15:01.730Z,101904.94
2022-09-23T11:18:03.476Z,101902.55
2022-09-23T11:20:36.360Z,101896.26
2022-09-23T11:23:22.664Z,101898.78
2022-09-23T11:26:17.239Z,101898.16
2022-09-23T11:28:56.929Z,101881.32
2022-09-23T11:31:43.621Z,101897.38
2022-09-23T11:34:26.688Z,101896.89
2022-09-23T11:37:12.819Z,101888.54
2022-09-23T11:39:50.218Z,101887.27
2022-09-23T11:42:25.225Z,101884.25
2022-09-23T11:45:02.851Z,101880.66
2022-09-23T11:47:39.963Z,101878.99
2022-09-23T11:50:34.915Z,101878.83
2022-09-23T11:53:05.857Z,101876.86
2022-09-23T11:55:56.345Z,101874.73
2022-09-23T12:01:37.615Z,101874.03
2022-09-23T12:04:33.213Z,101874.18
2022-09-23T12:07:06.512Z,101867.27
2022-09-23T12:09:59.838Z,101868.81
2022-09-23T12:13:03.202Z,101870.32
2022-09-23T12:15:34.530Z,101853.04
2022-09-23T12:18:26.979Z,101868.02
2022-09-23T12:21:18.165Z,101868.17
2022-09-23T12:24:19.257Z,101867.21
2022-09-23T12:26:54.200Z,101860.48
2022-09-23T12:29:26.916Z,101858.59
2022-09-23T12:31:55.733Z,101857.89
2022-09-23T12:34:30.645Z,101857.08
2022-09-23T12:37:04.147Z,101855.77
2022-09-23T12:39:35.593Z,101854.13
2022-09-23T12:42:06.676Z,101848.41
2022-09-23T12:44:39.270Z,101853.25
2022-09-23T12:47:29.015Z,101851.07
2022-09-23T12:49:57.392Z,101846.93
2022-09-23T12:52:33.557Z,101851.22
2022-09-23T12:55:20.832Z,101831.76
2022-09-23T12:57:49.438Z,101838.57
2022-09-23T13:00:20.583Z,101835.04
2022-09-23T13:03:11.313Z,101834.58
2022-09-23T13:06:04.094Z,101835.09
2022-09-23T13:08:36.026Z,101828.49
2022-09-23T13:11:13.399Z,101832.00
2022-09-23T13:13:44.615Z,101830.52
2022-09-23T13:16:42.333Z,101833.40
2022-09-23T13:19:25.736Z,101831.77
2022-09-23T13:21:54.143Z,101825.52
2022-09-23T13:24:25.128Z,101827.46
2022-09-23T13:26:55.676Z,101810.25
2022-09-23T13:29:28.116Z,101821.85
2022-09-23T13:31:58.047Z,101819.19
2022-09-23T13:34:32.348Z,101815.60
2022-09-23T13:37:22.201Z,101815.80
2022-09-23T13:39:51.431Z,101808.77
2022-09-23T13:42:40.053Z,101801.89
2022-09-23T13:45:16.073Z,101799.07
2022-09-23T13:47:45.861Z,101799.64
2022-09-23T13:50:19.830Z,101792.05
2022-09-23T13:53:01.207Z,101794.42
2022-09-23T13:55:37.560Z,101793.64
2022-09-23T13:58:17.487Z,101792.29
2022-09-23T14:00:46.291Z,101792.02
2022-09-23T14:03:36.247Z,101791.05
2022-09-23T14:06:14.368Z,101791.24
2022-09-23T14:08:47.539Z,101776.52
2022-09-23T14:11:21.622Z,101783.44
2022-09-23T14:13:55.160Z,101783.84
2022-09-23T14:16:26.953Z,101782.65
2022-09-23T14:19:00.596Z,101781.02
2022-09-23T14:21:35.453Z,101784.54
2022-09-23T14:24:33.453Z,101782.73
2022-09-23T14:27:15.224Z,101783.73
2022-09-23T14:29:46.931Z,101782.39
2022-09-23T14:32:25.460Z,101779.27
2022-09-23T14:35:00.509Z,101778.41
2022-09-23T14:38:33.553Z,101780.94
2022-09-23T14:41:17.614Z,101778.65
2022-09-23T14:43:49.106Z,101771.55
2022-09-23T14:46:22.948Z,101767.11
2022-09-23T14:48:58.537Z,101751.15
2022-09-23T14:51:45.766Z,101747.46
2022-09-23T14:54:40.280Z,101757.02
2022-09-23T14:57:25.723Z,101756.37
2022-09-23T14:59:53.807Z,101753.23
2022-09-23T15:02:39.400Z,101752.42
2022-09-23T15:05:22.922Z,101755.19
2022-09-23T15:07:53.157Z,101747.64
2022-09-23T15:10:30.590Z,101749.32
2022-09-23T15:13:14.571Z,101747.45
2022-09-23T15:15:42.813Z,101745.48
2022-09-23T15:18:19.927Z,101749.38
2022-09-23T15:20:52.439Z,101744.04
2022-09-23T15:23:57.909Z,101743.10
2022-09-23T15:26:45.411Z,101743.40
2022-09-23T15:29:13.843Z,101740.55
2022-09-23T15:31:42.829Z,101742.11
2022-09-23T15:34:11.329Z,101737.89
2022-09-23T15:36:40.151Z,101737.69
2022-09-23T15:39:11.498Z,101736.63
2022-09-23T15:41:39.734Z,101735.48
2022-09-23T15:44:17.317Z,101733.93
2022-09-23T15:46:47.331Z,101731.66
2022-09-23T15:49:28.692Z,101735.51
2022-09-23T15:52:00.973Z,101737.39
2022-09-23T15:54:30.401Z,101729.03
2022-09-23T15:56:58.819Z,101720.48
2022-09-23T15:59:28.783Z,101722.39
2022-09-23T16:01:59.268Z,101722.70
2022-09-23T16:04:28.378Z,101723.49
2022-09-23T16:06:58.497Z,101724.61
2022-09-23T16:09:31.013Z,101723.48
2022-09-23T16:12:02.875Z,101724.54
2022-09-23T16:14:31.326Z,101726.02
2022-09-23T16:16:59.709Z,101723.05
2022-09-23T16:19:28.044Z,101722.81
2022-09-23T16:21:56.230Z,101726.55
2022-09-23T16:24:28.017Z,101729.35
2022-09-23T16:27:00.151Z,101712.71
2022-09-23T16:29:28.437Z,101732.70
2022-09-23T16:31:56.541Z,101735.89
2022-09-23T16:34:25.104Z,101737.80
2022-09-23T16:36:53.678Z,101733.67
2022-09-23T16:39:23.068Z,101731.42
2022-09-23T16:41:51.771Z,101726.92
2022-09-23T16:44:20.394Z,101724.39
2022-09-23T16:46:49.210Z,101720.58
2022-09-23T16:49:18.165Z,101720.14
2022-09-23T16:51:46.254Z,101728.02
2022-09-23T16:54:14.447Z,101724.52
2022-09-23T16:56:46.810Z,101725.10
2022-09-23T16:59:16.498Z,101724.56
2022-09-23T17:02:03.723Z,101724.20
2022-09-23T17:04:32.148Z,101728.27
2022-09-23T17:07:00.405Z,101728.22
2022-09-23T17:09:29.109Z,101724.55
2022-09-23T17:12:23.310Z,101724.67
2022-09-23T17:14:52.664Z,101725.67
2022-09-23T17:17:21.254Z,101723.37
2022-09-23T17:19:49.462Z,101721.23
2022-09-23T17:22:17.584Z,101723.18
2022-09-23T17:24:45.811Z,101724.23
2022-09-23T17:27:15.740Z,101719.88
2022-09-23T17:29:44.616Z,101719.95
2022-09-23T17:32:12.861Z,101720.13
2022-09-23T17:34:44.079Z,101717.70
2022-09-23T17:37:12.544Z,101716.66
2022-09-23T17:39:42.525Z,101723.74
2022-09-23T17:42:10.633Z,101724.87
2022-09-23T17:44:38.793Z,101725.49
2022-09-23T17:47:07.090Z,101726.77
2022-09-23T17:49:35.537Z,101724.20
2022-09-23T17:52:05.562Z,101725.25
2022-09-23T17:54:33.776Z,101725.80
2022-09-23T17:57:02.977Z,101720.79
2022-09-23T17:59:31.306Z,101719.86
2022-09-23T18:01:59.494Z,101719.39
2022-09-23T18:04:27.920Z,101720.23
2022-09-23T18:06:56.097Z,101702.10
2022-09-23T18:09:24.553Z,101724.94
2022-09-23T18:11:52.724Z,101721.91
2022-09-23T18:14:23.018Z,101721.61
2022-09-23T18:16:53.808Z,101724.17
2022-09-23T18:19:24.519Z,101724.96
2022-09-23T18:21:56.154Z,101722.25
2022-09-23T18:24:32.443Z,101716.48
2022-09-23T18:27:01.838Z,101720.08
2022-09-23T18:29:30.424Z,101698.29
2022-09-23T18:31:59.541Z,101720.66
2022-09-23T18:34:29.356Z,101728.31
2022-09-23T18:36:57.589Z,101728.83
2022-09-23T18:39:26.097Z,101730.20
2022-09-23T18:41:54.944Z,101727.59
2022-09-23T18:44:23.591Z,101724.61
2022-09-23T18:46:52.130Z,101727.84
2022-09-23T18:49:39.021Z,101729.14
2022-09-23T18:52:07.278Z,101732.56
2022-09-23T18:54:35.377Z,101731.09
2022-09-23T18:57:05.403Z,101722.66
2022-09-23T18:59:33.795Z,101724.63
2022-09-23T19:02:02.584Z,101723.52
2022-09-23T19:04:31.065Z,101728.13
2022-09-23T19:06:59.357Z,101726.33
2022-09-23T19:09:27.667Z,101725.09
2022-09-23T19:11:57.001Z,101724.29
2022-09-23T19:14:25.345Z,101722.19
2022-09-23T19:16:53.797Z,101724.59
2022-09-23T19:19:21.949Z,101724.92
2022-09-23T19:21:50.039Z,101728.92
2022-09-23T19:24:20.614Z,101731.02
2022-09-23T19:26:48.992Z,101730.35
2022-09-23T19:29:22.082Z,101732.04
2022-09-23T19:31:51.245Z,101732.08
2022-09-23T19:34:23.975Z,101733.48
2022-09-23T19:36:53.042Z,101731.02
2022-09-23T19:39:23.161Z,101729.29
2022-09-23T19:41:56.055Z,101732.34
2022-09-23T19:44:28.129Z,101729.81
2022-09-23T19:46:57.472Z,101727.39
2022-09-23T19:49:26.247Z,101725.58
2022-09-23T19:51:56.168Z,101729.94
2022-09-23T19:54:27.592Z,101729.48
2022-09-23T19:56:56.105Z,101731.14
2022-09-23T19:59:26.551Z,101725.67
2022-09-23T20:01:55.289Z,101725.44
2022-09-23T20:04:23.849Z,101723.84
2022-09-23T20:06:52.327Z,101723.27
2022-09-23T20:09:21.076Z,101723.63
2022-09-23T20:11:49.858Z,101724.55
2022-09-23T20:14:19.901Z,101723.30
2022-09-23T20:16:48.220Z,101716.98
2022-09-23T20:19:16.352Z,101717.59
2022-09-23T20:21:45.202Z,101718.88
2022-09-23T20:24:13.352Z,101716.23
2022-09-23T20:26:59.966Z,101697.17
2022-09-23T20:29:28.237Z,101712.35
2022-09-23T20:31:58.740Z,101707.65
2022-09-23T20:34:30.073Z,101705.98
2022-09-23T20:36:59.381Z,101704.19
2022-09-23T20:39:28.153Z,101701.70
2022-09-23T20:41:56.340Z,101701.23
2022-09-23T20:44:24.542Z,101696.41
2022-09-23T20:46:52.811Z,101697.68
2022-09-23T20:49:21.009Z,101696.59
2022-09-23T20:51:49.327Z,101694.58
2022-09-23T20:54:21.083Z,101694.48
2022-09-23T20:56:49.221Z,101696.45
2022-09-23T20:59:18.715Z,101694.65
2022-09-23T21:01:47.894Z,101693.32
2022-09-23T21:04:16.530Z,101693.71
2022-09-23T21:06:45.031Z,101695.63
2022-09-23T21:09:13.214Z,101693.38
2022-09-23T21:11:41.302Z,101695.27
2022-09-23T21:14:10.145Z,101696.80
2022-09-23T21:16:38.780Z,101696.69
2022-09-23T21:19:10.649Z,101690.91
2022-09-23T21:21:39.279Z,101704.73
2022-09-23T21:24:36.011Z,101699.79
2022-09-23T21:26:55.651Z,101705.11
2022-09-23T21:29:23.987Z,101701.34
2022-09-23T21:31:52.243Z,101703.17
2022-09-23T21:34:20.401Z,101704.33
2022-09-23T21:36:48.635Z,101705.94
2022-09-23T21:39:16.806Z,101709.48
2022-09-23T21:41:45.376Z,101708.68
2022-09-23T21:44:13.543Z,101707.52
2022-09-23T21:46:41.997Z,101707.52
2022-09-23T21:49:10.272Z,101705.66
2022-09-23T21:51:41.273Z,101699.11
2022-09-23T21:54:16.110Z,101705.58
2022-09-23T21:56:44.480Z,101700.29
2022-09-23T21:59:12.659Z,101702.67
2022-09-23T22:01:49.387Z,101699.80
2022-09-23T22:04:21.984Z,101688.97
2022-09-23T22:06:50.126Z,101702.21
2022-09-23T22:09:20.546Z,101705.44
2022-09-23T22:12:07.538Z,101685.95
2022-09-23T22:14:36.470Z,101699.71
2022-09-23T22:17:06.721Z,101699.58
2022-09-23T22:19:40.285Z,101693.73
2022-09-23T22:22:13.556Z,101695.61
2022-09-23T22:24:43.947Z,101694.70
2022-09-23T22:27:14.217Z,101699.71
2022-09-23T22:30:00.652Z,101696.04
2022-09-23T22:32:41.177Z,101695.98
2022-09-23T22:35:11.812Z,101691.30
2022-09-23T22:37:39.898Z,101688.65
2022-09-23T22:40:15.570Z,101687.31
2022-09-23T22:42:44.446Z,101687.81
2022-09-23T22:45:13.646Z,101682.70
2022-09-23T22:47:45.603Z,101680.88
2022-09-23T22:50:15.408Z,101676.86
2022-09-23T22:52:45.101Z,101676.77
2022-09-23T22:55:13.555Z,101675.60
2022-09-23T22:57:41.707Z,101673.81
2022-09-23T23:00:11.545Z,101674.46
2022-09-23T23:02:40.288Z,101674.78
2022-09-23T23:05:08.876Z,101678.16
2022-09-23T23:07:39.880Z,101675.92
2022-09-23T23:10:10.277Z,101663.98
2022-09-23T23:12:39.610Z,101672.57
2022-09-23T23:15:11.783Z,101678.23
2022-09-23T23:17:43.361Z,101672.29
2022-09-23T23:20:11.476Z,101673.08
2022-09-23T23:22:39.583Z,101669.36
2022-09-23T23:25:08.107Z,101667.43
2022-09-23T23:27:36.255Z,101666.23
2022-09-23T23:30:04.687Z,101668.21
2022-09-23T23:32:32.956Z,101669.97
2022-09-23T23:35:01.094Z,101670.37
2022-09-23T23:37:29.683Z,101669.27
2022-09-23T23:39:57.807Z,101658.25
2022-09-23T23:42:27.374Z,101668.09
2022-09-23T23:44:55.409Z,101669.26
2022-09-23T23:47:24.400Z,101671.66
2022-09-23T23:49:54.375Z,101672.36
2022-09-23T23:52:22.563Z,101669.64
2022-09-23T23:54:52.508Z,101665.30
2022-09-23T23:57:20.647Z,101661.73
2022-09-23T23:59:48.731Z,101657.55
